»·PEaware :: N292MC 8WX-KYKM

N292MC :: 8WX-KYKM

FLIGHT INFORMATION

Flight Status: Arrived
Operator: Privately registered:
United States
More flights under this callsign
Pilot: Maurice C. (12314)
Aircraft: Unknown
(KODI)
More flights by this aircraft type
Origin: 8WX
Destination: KYKM Yakima Air Term/Mcallister
United States
More flights between these airports :: More routes between these airports
Route: TCM ALDER WHYTE
File this flight plan on PilotEdge
Remarks: ALPHABET CHALLENGE
Altitude:
(Current/Filed)
7,500ft
Speed:
(Current/Filed)
180kts
Departed: 11-May-20 02:57 PM
Arrived: 11-May-20 04:01 PM
Distance/Time
Traveled:
Not Available
Distance/Time
To Go:
Arrived

Flight Plot

Page will automatically refresh every two minutes.


Map Options




Map Legend


Flown Route
Filed Route
Departure Airport
Arrival Airport
Navaid (VOR, NDB)
Fix

Horizontal Profiles

Position Reports

Time Latitude Longitude Heading Altitude Ground
Speed
11-May-20 14:50 47.655896 -122.732998 46 518ft 0kts
11-May-20 14:51 47.655896 -122.732998 46 518ft 0kts
11-May-20 14:53 47.655896 -122.732998 46 518ft 0kts
11-May-20 14:54 47.656255 -122.732916 9 522ft 1kts
11-May-20 14:55 47.659365 -122.732324 3 529ft 3kts
11-May-20 14:56 47.659946 -122.732265 323 526ft 2kts
11-May-20 14:57 47.646475 -122.733991 185 869ft 114kts
11-May-20 14:58 47.625821 -122.698763 131 1621ft 143kts
11-May-20 14:59 47.601757 -122.656838 138 2277ft 166kts
11-May-20 15:00 47.564906 -122.646531 172 3026ft 165kts
11-May-20 15:01 47.526952 -122.635199 178 3768ft 164kts
11-May-20 15:02 47.488248 -122.636049 180 4503ft 163kts
11-May-20 15:03 47.448824 -122.627650 152 4528ft 180kts
11-May-20 15:04 47.412791 -122.605261 161 4511ft 179kts
11-May-20 15:05 47.377203 -122.586125 159 4511ft 181kts
11-May-20 15:06 47.339988 -122.569948 157 4502ft 181kts
11-May-20 15:07 47.304241 -122.551210 166 4509ft 180kts
11-May-20 15:08 47.266806 -122.538775 166 4503ft 179kts
11-May-20 15:09 47.226560 -122.525386 158 3841ft 180kts
11-May-20 15:09 47.198373 -122.503726 155 3461ft 153kts
11-May-20 15:11 47.162505 -122.483871 159 3499ft 136kts
11-May-20 15:12 47.132218 -122.471159 177 3483ft 130kts
11-May-20 15:13 47.102893 -122.466677 173 3827ft 110kts
11-May-20 15:14 47.079312 -122.462515 171 4448ft 84kts
11-May-20 15:14 47.059620 -122.458574 172 4561ft 108kts
11-May-20 15:16 47.023387 -122.452159 171 4680ft 117kts
11-May-20 15:16 46.998713 -122.447346 170 4922ft 115kts
11-May-20 15:17 46.971490 -122.442233 169 5273ft 107kts
11-May-20 15:18 46.948083 -122.437964 169 5696ft 97kts
11-May-20 15:19 46.925368 -122.433710 168 5983ft 100kts
11-May-20 15:20 46.902170 -122.429394 168 6374ft 113kts
11-May-20 15:21 46.881428 -122.425406 169 6522ft 161kts
11-May-20 15:22 46.843056 -122.418600 168 6529ft 177kts
11-May-20 15:23 46.808571 -122.388563 115 6572ft 173kts
11-May-20 15:24 46.795580 -122.331403 112 6939ft 164kts
11-May-20 15:25 46.778133 -122.275907 112 7435ft 161kts
11-May-20 15:26 46.761196 -122.220908 112 8087ft 156kts
11-May-20 15:27 46.743737 -122.165731 112 8519ft 162kts
11-May-20 15:28 46.724282 -122.103710 112 8525ft 170kts
11-May-20 15:29 46.704742 -122.041409 112 8536ft 168kts
11-May-20 15:30 46.684386 -121.977597 111 8502ft 172kts
11-May-20 15:31 46.664168 -121.913389 111 8518ft 170kts
11-May-20 15:32 46.644020 -121.849772 111 8506ft 170kts
11-May-20 15:33 46.623870 -121.786384 111 8513ft 171kts
11-May-20 15:34 46.603321 -121.721962 111 8507ft 171kts
11-May-20 15:35 46.582774 -121.656563 111 8505ft 171kts
11-May-20 15:36 46.567802 -121.591743 103 8497ft 170kts
11-May-20 15:37 46.554684 -121.528968 103 8505ft 169kts
11-May-20 15:38 46.542187 -121.469343 103 8865ft 160kts
11-May-20 15:39 46.530029 -121.411510 103 8990ft 166kts
11-May-20 15:40 46.517442 -121.352021 103 8986ft 169kts
11-May-20 15:41 46.506299 -121.299392 104 9036ft 169kts
11-May-20 15:42 46.494074 -121.241840 104 8985ft 172kts
11-May-20 15:43 46.481282 -121.181821 104 8608ft 177kts
11-May-20 15:44 46.469346 -121.125946 105 8242ft 179kts
11-May-20 15:45 46.457269 -121.069548 104 7858ft 180kts
11-May-20 15:46 46.445266 -121.013726 104 7349ft 185kts
11-May-20 15:47 46.432849 -120.956124 104 6626ft 190kts
11-May-20 15:48 46.419504 -120.894429 104 5939ft 190kts
11-May-20 15:49 46.423582 -120.833784 52 5311ft 185kts
11-May-20 15:50 46.452859 -120.786470 53 4686ft 186kts
11-May-20 15:51 46.475134 -120.739332 52 4045ft 142kts
11-May-20 15:52 46.491076 -120.706225 51 3489ft 102kts
11-May-20 15:53 46.503167 -120.681033 55 3270ft 101kts
11-May-20 15:54 46.517305 -120.651372 55 2739ft 121kts
11-May-20 15:55 46.531657 -120.621101 53 2153ft 104kts
11-May-20 15:56 46.550664 -120.609663 23 2063ft 91kts
11-May-20 15:57 46.570717 -120.598033 30 1882ft 104kts
11-May-20 15:58 46.576490 -120.575652 104 1475ft 81kts
11-May-20 15:59 46.570968 -120.553441 105 1092ft 45kts
11-May-20 16:00 46.570841 -120.549353 25 1085ft 0kts
11-May-20 16:01 46.569372 -120.542113 108 1072ft 25kts
11-May-20 16:02 46.569787 -120.537725 87 1065ft 0kts
11-May-20 16:03 46.569787 -120.537725 87 1065ft 0kts
11-May-20 16:04 46.569787 -120.537725 87 1065ft 0kts
11-May-20 16:05 46.569787 -120.537725 87 1065ft 0kts
11-May-20 16:06 46.569787 -120.537725 87 1065ft 0kts
11-May-20 16:07 46.569787 -120.537725 87 1065ft 0kts
11-May-20 16:08 46.569787 -120.537725 87 1065ft 0kts
11-May-20 16:09 46.569787 -120.537725 87 1065ft 0kts
11-May-20 16:10 46.569787 -120.537725 87 1065ft 0kts
11-May-20 16:11 46.569787 -120.537725 87 1065ft 0kts
11-May-20 16:12 46.569787 -120.537725 87 1065ft 0kts

Navigation Log

Ident Type
Flight plan parsing failed, navigation log unavailable